Time;durP1;ratioP1;P1;durP2;ratioP2;P2;SDS_P1;SDS_P2;PMS_P1;PMS_P2;Temp;Humidity;BMP_temperature;BMP_pressure;BME280_temperature;BME280_humidity;BME280_pressure;Samples;Min_cycle;Max_cycle;Signal;HPM_P1;HPM_P2
2021/03/13 00:01:05;;;;;;;12.93;9.60;;;;;;;2.36;98.56;98510.59;1774465;79;21200;-64
2021/03/13 00:03:35;;;;;;;18.95;11.22;;;;;;;2.33;98.54;98505.14;1787619;79;21160;-63
2021/03/13 00:06:03;;;;;;;27.00;12.53;;;;;;;2.30;98.47;98505.91;1771933;79;21189;-63
2021/03/13 00:08:33;;;;;;;13.30;8.65;;;;;;;2.25;98.43;98508.96;1743697;81;21005;-64
2021/03/13 00:11:00;;;;;;;14.40;8.90;;;;;;;2.20;98.43;98515.59;1789279;79;21041;-64
2021/03/13 00:13:29;;;;;;;14.10;9.10;;;;;;;2.16;98.51;98512.92;1791128;79;21149;-63
2021/03/13 00:15:56;;;;;;;10.28;7.90;;;;;;;2.12;98.55;98517.61;1783401;79;21131;-64
2021/03/13 00:18:25;;;;;;;11.08;9.10;;;;;;;2.11;98.70;98512.02;1803644;79;21200;-62
2021/03/13 00:20:52;;;;;;;13.62;9.73;;;;;;;2.11;98.69;98513.83;1771949;79;21119;-64
2021/03/13 00:23:20;;;;;;;22.35;11.53;;;;;;;2.08;98.75;98514.95;1794807;79;20970;-61
2021/03/13 00:25:47;;;;;;;16.20;10.08;;;;;;;2.08;98.78;98521.98;1781141;79;21105;-64
2021/03/13 00:28:15;;;;;;;13.15;8.00;;;;;;;2.07;98.78;98521.63;1786872;79;21126;-63
2021/03/13 00:30:47;;;;;;;12.63;7.58;;;;;;;2.05;98.78;98516.53;1771887;79;21186;-63
2021/03/13 00:33:19;;;;;;;11.60;6.97;;;;;;;2.05;98.81;98519.16;1773968;79;21135;-64
2021/03/13 00:35:50;;;;;;;9.15;7.95;;;;;;;2.07;98.80;98526.87;1768154;79;21544;-60
2021/03/13 00:38:17;;;;;;;10.65;7.50;;;;;;;2.07;98.81;98529.02;1747131;79;21151;-64
2021/03/13 00:40:45;;;;;;;10.15;7.80;;;;;;;2.08;98.85;98532.00;1762489;79;21041;-63
2021/03/13 00:43:14;;;;;;;10.58;8.25;;;;;;;2.08;98.79;98524.60;1762420;79;21367;-65
2021/03/13 00:45:43;;;;;;;11.12;8.50;;;;;;;2.10;98.75;98524.80;1747253;79;20941;-62
2021/03/13 00:48:10;;;;;;;9.93;7.72;;;;;;;2.08;98.63;98524.60;1765711;79;21489;-61
2021/03/13 00:50:41;;;;;;;10.75;7.55;;;;;;;2.05;98.60;98526.19;1753436;79;21016;-62
2021/03/13 00:53:09;;;;;;;10.60;7.28;;;;;;;2.02;98.57;98523.36;1787866;79;21108;-64
2021/03/13 00:55:37;;;;;;;8.85;7.10;;;;;;;2.00;98.49;98517.91;1797262;79;21331;-63
2021/03/13 00:58:06;;;;;;;7.92;6.97;;;;;;;1.97;98.42;98523.43;1751136;79;21080;-65
2021/03/13 01:00:38;;;;;;;13.35;9.48;;;;;;;1.92;98.44;98521.23;1747422;79;21167;-62
2021/03/13 01:03:06;;;;;;;16.75;11.12;;;;;;;1.88;98.52;98516.73;1769375;79;21016;-61
2021/03/13 01:05:35;;;;;;;15.05;9.53;;;;;;;1.85;98.58;98519.63;1747269;79;21151;-64
2021/03/13 01:08:05;;;;;;;11.10;8.75;;;;;;;1.81;98.68;98517.44;1747259;79;21376;-62
2021/03/13 01:10:37;;;;;;;13.40;8.43;;;;;;;1.78;98.79;98522.48;1751080;79;21187;-62
2021/03/13 01:13:05;;;;;;;9.30;8.30;;;;;;;1.77;98.84;98520.00;1770484;79;21026;-62
2021/03/13 01:15:34;;;;;;;8.08;7.20;;;;;;;1.76;98.81;98518.34;1774956;79;20922;-63
2021/03/13 01:18:03;;;;;;;10.20;7.62;;;;;;;1.75;98.78;98512.73;1771090;79;21107;-61
2021/03/13 01:20:32;;;;;;;11.38;8.58;;;;;;;1.73;98.75;98515.51;1739036;79;21459;-62
2021/03/13 01:23:00;;;;;;;10.82;7.92;;;;;;;1.71;98.74;98522.69;1773661;79;21035;-63
2021/03/13 01:25:28;;;;;;;10.60;8.65;;;;;;;1.70;98.71;98511.02;1757681;79;21013;-62
2021/03/13 01:27:56;;;;;;;13.35;9.78;;;;;;;1.68;98.64;98514.27;1747249;79;21151;-60
2021/03/13 01:30:24;;;;;;;17.02;9.88;;;;;;;1.64;98.59;98510.27;1747194;79;21096;-63
2021/03/13 01:32:53;;;;;;;14.68;10.75;;;;;;;1.59;98.55;98511.17;1754309;79;22156;-62
2021/03/13 01:35:22;;;;;;;20.23;12.15;;;;;;;1.53;98.55;98504.68;1737392;81;21045;-62
2021/03/13 01:37:50;;;;;;;18.60;12.80;;;;;;;1.47;98.63;98505.69;1747598;79;21128;-61
2021/03/13 01:40:18;;;;;;;14.38;10.08;;;;;;;1.43;98.73;98510.40;1773956;79;21594;-61
2021/03/13 01:42:47;;;;;;;11.80;9.35;;;;;;;1.38;98.80;98511.77;1759788;79;21116;-61
2021/03/13 01:45:21;;;;;;;16.30;10.68;;;;;;;1.35;98.91;98509.41;1767287;79;21275;-63
2021/03/13 01:47:50;;;;;;;14.50;11.00;;;;;;;1.33;98.99;98506.11;1750748;78;21501;-63
2021/03/13 01:50:19;;;;;;;14.60;10.20;;;;;;;1.30;99.02;98507.20;1765803;80;21096;-62
2021/03/13 01:52:48;;;;;;;23.12;12.20;;;;;;;1.27;99.06;98507.47;1769748;79;21155;-63
2021/03/13 01:55:18;;;;;;;14.73;10.60;;;;;;;1.23;99.06;98510.84;1749655;80;21016;-61
2021/03/13 01:57:46;;;;;;;15.13;10.03;;;;;;;1.20;99.16;98505.86;1758060;79;21367;-63
2021/03/13 02:00:19;;;;;;;12.25;9.70;;;;;;;1.18;99.19;98498.63;1747274;79;20921;-61
2021/03/13 02:02:48;;;;;;;13.20;9.98;;;;;;;1.15;99.24;98498.05;1747966;79;21025;-63
2021/03/13 02:05:25;;;;;;;14.53;10.88;;;;;;;1.11;99.22;98502.76;1765773;79;21021;-61
2021/03/13 02:08:36;;;;;;;22.65;13.93;;;;;;;1.07;99.29;98501.86;1749170;79;20938;-62
2021/03/13 02:11:27;;;;;;;28.32;14.68;;;;;;;1.01;99.45;98502.38;1747311;79;21195;-63
2021/03/13 02:14:16;;;;;;;18.60;12.28;;;;;;;0.97;99.78;98504.43;1775046;79;20923;-61
2021/03/13 02:17:00;;;;;;;15.63;10.93;;;;;;;0.96;99.99;98505.41;1767122;79;21168;-62
2021/03/13 02:20:16;;;;;;;12.33;9.80;;;;;;;0.98;100.00;98515.27;1758224;79;21539;-63
2021/03/13 02:22:45;;;;;;;12.40;10.58;;;;;;;1.00;100.00;98512.02;1776754;79;21054;-60
2021/03/13 02:26:22;;;;;;;15.10;10.45;;;;;;;1.01;100.00;98510.23;1763241;79;22485;-63
2021/03/13 02:29:28;;;;;;;12.78;10.32;;;;;;;1.02;100.00;98514.02;1755365;79;20942;-64
2021/03/13 02:31:59;;;;;;;12.55;9.53;;;;;;;1.03;100.00;98518.31;1778572;80;21090;-62
2021/03/13 02:34:31;;;;;;;11.90;9.55;;;;;;;1.03;100.00;98522.72;1781232;79;20988;-64
2021/03/13 02:37:10;;;;;;;11.18;9.20;;;;;;;1.02;100.00;98512.72;1780855;79;21092;-64
2021/03/13 02:39:40;;;;;;;10.18;8.60;;;;;;;1.05;100.00;98522.92;1782923;79;22263;-65
2021/03/13 02:42:09;;;;;;;8.40;7.60;;;;;;;1.07;100.00;98520.19;1782670;79;21128;-63
2021/03/13 02:44:37;;;;;;;10.75;9.23;;;;;;;1.08;100.00;98521.36;1790263;79;21100;-61
2021/03/13 02:47:07;;;;;;;9.13;8.18;;;;;;;1.10;100.00;98516.80;1803226;79;21171;-61
2021/03/13 02:49:38;;;;;;;10.40;8.85;;;;;;;1.11;100.00;98517.64;1789199;79;21223;-63
2021/03/13 02:52:07;;;;;;;9.33;8.25;;;;;;;1.10;100.00;98518.11;1791652;79;21237;-62
2021/03/13 02:54:39;;;;;;;13.35;10.58;;;;;;;1.10;100.00;98514.19;1798015;79;21033;-64
2021/03/13 02:57:07;;;;;;;17.00;10.90;;;;;;;1.11;100.00;98511.92;1784703;79;21546;-61
2021/03/13 02:59:35;;;;;;;14.95;10.45;;;;;;;1.12;100.00;98517.49;1772801;79;21559;-63
2021/03/13 03:02:07;;;;;;;13.48;10.63;;;;;;;1.12;100.00;98510.14;1765251;80;21155;-63
2021/03/13 03:04:37;;;;;;;10.68;9.50;;;;;;;1.14;100.00;98513.45;1782677;79;21370;-60
2021/03/13 03:07:05;;;;;;;10.63;8.83;;;;;;;1.13;99.98;98515.23;1783273;79;21206;-64
2021/03/13 03:09:33;;;;;;;11.93;10.08;;;;;;;1.14;99.95;98512.13;1784060;79;21025;-64
2021/03/13 03:12:01;;;;;;;10.55;8.65;;;;;;;1.15;99.91;98519.02;1782716;79;21065;-63
2021/03/13 03:14:29;;;;;;;12.15;9.00;;;;;;;1.16;99.85;98518.06;1754393;80;21112;-64
2021/03/13 03:17:00;;;;;;;11.68;9.40;;;;;;;1.14;99.75;98518.21;1782577;79;21422;-63
2021/03/13 03:19:30;;;;;;;11.40;9.88;;;;;;;1.13;99.69;98513.92;1783913;79;21135;-64
2021/03/13 03:22:00;;;;;;;16.12;12.23;;;;;;;1.12;99.60;98515.37;1783091;79;21044;-64
2021/03/13 03:24:29;;;;;;;23.15;13.98;;;;;;;1.11;99.58;98522.41;1802758;79;21641;-64
2021/03/13 03:26:59;;;;;;;31.93;16.42;;;;;;;1.09;99.57;98513.86;1782696;79;21140;-62
2021/03/13 03:29:28;;;;;;;23.45;14.10;;;;;;;1.10;99.53;98515.97;1789693;79;21137;-62
2021/03/13 03:31:56;;;;;;;23.90;13.80;;;;;;;1.09;99.50;98520.88;1793964;79;21029;-62
2021/03/13 03:34:24;;;;;;;21.40;13.35;;;;;;;1.09;99.48;98523.50;1782626;79;20926;-64
2021/03/13 03:36:53;;;;;;;13.75;10.72;;;;;;;1.09;99.45;98536.13;1780385;79;21143;-64
2021/03/13 03:39:21;;;;;;;11.00;9.78;;;;;;;1.08;99.41;98542.31;1795110;79;21136;-64
2021/03/13 03:41:51;;;;;;;11.50;10.32;;;;;;;1.09;99.38;98539.22;1773816;79;21301;-64
2021/03/13 03:44:24;;;;;;;12.28;10.90;;;;;;;1.09;99.32;98541.36;1743572;79;21188;-64
2021/03/13 03:46:56;;;;;;;12.63;11.40;;;;;;;1.08;99.23;98533.14;1787180;79;20980;-62
2021/03/13 03:49:24;;;;;;;14.10;11.43;;;;;;;1.08;99.21;98538.38;1781487;79;21156;-65
2021/03/13 03:52:03;;;;;;;13.62;11.48;;;;;;;1.07;99.16;98541.15;1773311;79;21159;-61
2021/03/13 03:54:35;;;;;;;12.47;11.10;;;;;;;1.06;99.10;98535.55;1773881;79;21358;-63
2021/03/13 03:57:06;;;;;;;13.48;11.25;;;;;;;1.05;99.10;98542.57;1773774;79;21195;-62
2021/03/13 03:59:33;;;;;;;12.70;11.38;;;;;;;1.05;99.04;98538.64;1769104;79;21163;-60
2021/03/13 04:02:01;;;;;;;12.68;10.68;;;;;;;1.04;98.99;98534.36;1788905;79;21053;-62
2021/03/13 04:04:29;;;;;;;11.75;10.53;;;;;;;1.04;98.95;98540.91;1774440;79;21128;-63
2021/03/13 04:06:57;;;;;;;15.68;11.45;;;;;;;1.05;98.92;98540.42;1773900;79;21360;-61
2021/03/13 04:09:26;;;;;;;12.40;10.63;;;;;;;1.05;98.86;98545.19;1778263;79;21300;-63
2021/03/13 04:11:55;;;;;;;12.13;10.10;;;;;;;1.05;98.75;98540.42;1791686;79;20902;-61
2021/03/13 04:14:23;;;;;;;12.33;11.00;;;;;;;1.05;98.66;98543.88;1773977;79;20938;-63
2021/03/13 04:16:50;;;;;;;13.28;11.73;;;;;;;1.03;98.57;98545.81;1775180;79;21132;-63
2021/03/13 04:19:18;;;;;;;12.33;11.03;;;;;;;1.00;98.49;98543.45;1773406;79;21208;-65
2021/03/13 04:21:45;;;;;;;16.62;11.88;;;;;;;0.98;98.46;98546.70;1801032;78;21084;-64
2021/03/13 04:24:13;;;;;;;13.08;11.20;;;;;;;0.94;98.47;98543.98;1782082;79;20936;-60
2021/03/13 04:26:43;;;;;;;14.98;11.30;;;;;;;0.93;98.54;98541.03;1800759;79;21114;-61
2021/03/13 04:29:11;;;;;;;14.07;10.85;;;;;;;0.93;98.56;98547.58;1776779;79;21535;-63
2021/03/13 04:31:38;;;;;;;13.43;11.12;;;;;;;0.93;98.58;98546.27;1773936;79;21541;-61
2021/03/13 04:34:07;;;;;;;13.83;11.35;;;;;;;0.93;98.55;98553.29;1778759;79;21158;-63
2021/03/13 04:36:36;;;;;;;11.60;10.40;;;;;;;0.94;98.52;98549.72;1760768;80;21040;-63
2021/03/13 04:39:05;;;;;;;12.58;11.15;;;;;;;0.96;98.51;98553.03;1796715;79;21059;-64
2021/03/13 04:41:32;;;;;;;12.70;11.33;;;;;;;0.98;98.56;98556.34;1780234;79;21128;-64
2021/03/13 04:44:00;;;;;;;13.93;12.15;;;;;;;1.02;98.67;98545.92;1795022;79;21389;-63
2021/03/13 04:46:27;;;;;;;14.73;11.85;;;;;;;1.11;98.76;98549.91;1769001;80;21148;-63
2021/03/13 04:48:55;;;;;;;12.82;11.53;;;;;;;1.21;98.74;98548.14;1779608;79;20919;-60
2021/03/13 04:51:23;;;;;;;11.70;10.50;;;;;;;1.36;98.61;98554.30;1780329;79;21127;-62
2021/03/13 04:53:50;;;;;;;12.47;10.43;;;;;;;1.51;98.34;98547.72;1795278;79;21009;-61
2021/03/13 04:56:18;;;;;;;12.58;10.35;;;;;;;1.68;97.99;98550.49;1783362;79;21357;-60
2021/03/13 04:58:45;;;;;;;11.43;10.00;;;;;;;1.87;97.57;98541.80;1794979;79;20973;-62
2021/03/13 05:01:12;;;;;;;11.35;10.20;;;;;;;2.08;97.04;98555.61;1788304;79;21045;-61
2021/03/13 05:03:42;;;;;;;13.10;11.68;;;;;;;2.30;96.32;98547.89;1799198;79;21060;-64
2021/03/13 05:06:10;;;;;;;15.08;12.03;;;;;;;2.51;95.54;98549.86;1805885;79;20968;-63
2021/03/13 05:08:38;;;;;;;13.25;11.95;;;;;;;2.73;94.69;98550.84;1795415;79;21197;-62
2021/03/13 05:11:05;;;;;;;14.13;11.35;;;;;;;2.95;93.87;98547.84;1779450;79;21148;-64
2021/03/13 05:13:34;;;;;;;13.00;10.53;;;;;;;3.19;92.98;98549.11;1780127;79;21206;-62
2021/03/13 05:16:02;;;;;;;11.85;10.58;;;;;;;3.44;92.13;98545.30;1781762;79;21061;-61
2021/03/13 05:18:30;;;;;;;14.63;10.82;;;;;;;3.71;91.20;98542.63;1779607;79;21128;-61
2021/03/13 05:20:58;;;;;;;11.15;9.95;;;;;;;3.97;90.09;98540.07;1779559;79;21187;-63
2021/03/13 05:23:25;;;;;;;14.25;10.95;;;;;;;4.25;89.00;98539.47;1795191;79;21169;-61
2021/03/13 05:25:53;;;;;;;15.30;11.20;;;;;;;4.48;87.56;98540.64;1801381;79;21056;-62
2021/03/13 05:28:20;;;;;;;12.25;10.78;;;;;;;4.71;86.23;98543.58;1803928;79;21141;-61
2021/03/13 05:30:49;;;;;;;11.95;10.72;;;;;;;4.91;84.87;98542.36;1782420;79;21146;-61
2021/03/13 05:33:16;;;;;;;13.10;11.38;;;;;;;5.10;83.61;98551.84;1795596;79;22041;-62
2021/03/13 05:35:45;;;;;;;13.88;11.30;;;;;;;5.29;82.48;98549.77;1799306;79;21184;-61
2021/03/13 05:38:12;;;;;;;13.15;11.10;;;;;;;5.51;81.31;98556.28;1799970;79;20926;-61
2021/03/13 05:40:40;;;;;;;12.82;11.43;;;;;;;5.73;80.14;98545.63;1782445;79;21124;-63
2021/03/13 05:43:07;;;;;;;14.07;12.00;;;;;;;5.97;79.13;98538.59;1782660;79;21179;-62
2021/03/13 05:45:35;;;;;;;14.50;11.75;;;;;;;6.21;77.69;98541.73;1775430;79;21359;-61
2021/03/13 05:48:03;;;;;;;13.15;11.73;;;;;;;6.42;76.70;98539.41;1785225;79;21155;-62
2021/03/13 05:50:31;;;;;;;11.00;9.88;;;;;;;6.65;75.66;98536.41;1782741;79;21126;-65
2021/03/13 05:52:59;;;;;;;14.45;11.00;;;;;;;6.91;74.55;98534.05;1782651;79;21108;-61
2021/03/13 05:55:26;;;;;;;11.40;10.20;;;;;;;7.16;73.30;98543.05;1794078;79;21153;-61
2021/03/13 05:57:56;;;;;;;11.75;10.35;;;;;;;7.38;71.92;98540.96;1801765;79;21415;-62
2021/03/13 06:00:23;;;;;;;12.28;8.88;;;;;;;7.59;70.77;98550.11;1797440;79;21175;-62
2021/03/13 06:02:52;;;;;;;10.72;9.63;;;;;;;7.78;69.68;98549.19;1782695;79;21162;-64
2021/03/13 06:05:20;;;;;;;10.70;9.60;;;;;;;7.96;68.63;98547.58;1782662;79;21144;-64
2021/03/13 06:07:47;;;;;;;10.82;9.48;;;;;;;8.11;67.66;98552.95;1782771;79;21132;-63
2021/03/13 06:10:15;;;;;;;11.83;9.98;;;;;;;8.27;66.84;98550.19;1798506;79;21356;-62
2021/03/13 06:12:43;;;;;;;9.88;8.85;;;;;;;8.41;65.82;98550.25;1783295;79;21566;-62
2021/03/13 06:15:12;;;;;;;9.68;8.78;;;;;;;8.55;65.17;98553.95;1782736;79;20914;-64
2021/03/13 06:17:57;;;;;;;11.85;9.88;;;;;;;8.73;64.54;98557.59;1782730;79;21155;-62
2021/03/13 06:20:34;;;;;;;11.05;9.93;;;;;;;8.90;63.72;98555.08;1801223;79;21112;-65
2021/03/13 06:23:13;;;;;;;10.80;9.75;;;;;;;9.08;62.91;98551.56;1804595;79;21877;-64
2021/03/13 06:25:43;;;;;;;11.33;10.13;;;;;;;9.27;62.24;98553.67;1783402;79;20950;-63
2021/03/13 06:28:19;;;;;;;10.55;9.45;;;;;;;9.48;61.47;98550.27;1782784;79;21136;-64
2021/03/13 06:30:48;;;;;;;10.93;9.93;;;;;;;9.69;60.52;98552.47;1785274;79;21141;-65
2021/03/13 06:33:31;;;;;;;10.32;9.28;;;;;;;9.86;59.79;98556.53;1784590;79;21151;-60
2021/03/13 06:36:05;;;;;;;9.68;8.68;;;;;;;10.04;58.98;98555.30;1796449;79;21426;-61
2021/03/13 06:38:36;;;;;;;11.93;10.38;;;;;;;10.24;58.24;98552.36;1777808;79;20958;-61
2021/03/13 06:41:13;;;;;;;11.57;10.03;;;;;;;10.44;57.68;98547.53;1777968;79;21479;-62
2021/03/13 06:43:40;;;;;;;12.78;10.08;;;;;;;10.68;57.11;98548.13;1787275;79;21535;-64
2021/03/13 06:46:19;;;;;;;12.58;10.75;;;;;;;10.97;56.52;98551.92;1779409;79;21206;-64
2021/03/13 06:48:50;;;;;;;12.45;10.93;;;;;;;11.24;55.69;98551.58;1802995;79;21365;-65
2021/03/13 06:51:37;;;;;;;11.78;10.58;;;;;;;11.41;54.56;98551.05;1795585;79;21105;-63
2021/03/13 06:54:16;;;;;;;14.65;11.55;;;;;;;11.56;54.05;98545.56;1784374;79;20942;-64
2021/03/13 06:56:56;;;;;;;15.08;12.40;;;;;;;11.79;53.31;98550.09;1799572;78;21569;-62
2021/03/13 06:59:34;;;;;;;16.35;12.93;;;;;;;11.97;52.66;98543.68;1781809;79;21057;-65
2021/03/13 07:02:04;;;;;;;17.98;14.75;;;;;;;12.15;51.94;98542.59;1752401;79;21182;-62
2021/03/13 07:04:42;;;;;;;13.30;11.75;;;;;;;12.24;50.58;98541.39;1789481;79;20982;-63
2021/03/13 07:07:29;;;;;;;12.58;11.28;;;;;;;12.26;50.79;98532.66;1788723;79;21005;-63
2021/03/13 07:09:59;;;;;;;14.60;11.95;;;;;;;12.35;49.39;98538.13;1778973;79;21185;-64
2021/03/13 07:12:41;;;;;;;12.82;11.03;;;;;;;12.23;49.67;98542.40;1796376;79;21017;-63
2021/03/13 07:15:25;;;;;;;15.32;11.25;;;;;;;12.22;49.84;98539.45;1775730;79;21318;-63
2021/03/13 07:17:55;;;;;;;11.48;9.98;;;;;;;12.41;49.76;98546.33;1773816;79;21184;-63
2021/03/13 07:20:29;;;;;;;11.88;10.70;;;;;;;12.66;49.35;98534.84;1773891;79;21550;-64
2021/03/13 07:22:58;;;;;;;11.97;10.45;;;;;;;12.93;48.52;98537.77;1782124;79;21292;-61
2021/03/13 07:25:27;;;;;;;12.75;11.45;;;;;;;13.07;48.22;98541.28;1781121;79;21144;-63
2021/03/13 07:28:01;;;;;;;12.43;11.22;;;;;;;13.07;47.21;98535.94;1773828;79;21187;-64
2021/03/13 07:30:29;;;;;;;10.50;9.40;;;;;;;13.00;47.02;98531.10;1795893;79;21574;-62
2021/03/13 07:33:04;;;;;;;10.75;9.23;;;;;;;13.08;47.58;98528.25;1778793;79;21013;-63
2021/03/13 07:35:36;;;;;;;9.20;8.15;;;;;;;13.37;47.05;98525.09;1781922;78;21503;-61
2021/03/13 07:38:05;;;;;;;7.90;7.15;;;;;;;13.76;46.25;98534.79;1793693;79;21140;-62
2021/03/13 07:40:33;;;;;;;9.80;7.72;;;;;;;14.04;45.21;98525.06;1774873;79;22272;-61
2021/03/13 07:43:04;;;;;;;8.48;7.78;;;;;;;14.31;44.74;98520.36;1746563;80;20973;-61
2021/03/13 07:45:43;;;;;;;8.30;7.53;;;;;;;14.67;44.10;98517.84;1841377;77;22392;-62
2021/03/13 07:48:10;;;;;;;9.30;7.75;;;;;;;14.84;42.99;98518.39;1808889;79;21606;-61
2021/03/13 07:50:46;;;;;;;10.35;8.90;;;;;;;14.94;42.69;98520.55;1756744;80;21205;-61
2021/03/13 07:53:11;;;;;;;9.15;7.97;;;;;;;15.09;42.38;98517.54;1735801;81;20990;-63
2021/03/13 07:55:38;;;;;;;11.10;9.03;;;;;;;15.26;42.12;98510.55;1768606;80;20990;-61
2021/03/13 07:58:08;;;;;;;9.15;8.35;;;;;;;15.47;41.73;98514.66;1736353;80;21108;-63
2021/03/13 08:00:44;;;;;;;14.20;10.30;;;;;;;15.64;41.28;98513.84;1736443;82;21572;-65
2021/03/13 08:03:37;;;;;;;14.23;11.08;;;;;;;15.80;41.03;98512.41;1745540;80;21352;-64
2021/03/13 08:06:14;;;;;;;13.65;11.53;;;;;;;15.92;40.61;98506.03;1756408;80;21030;-61
2021/03/13 08:08:52;;;;;;;14.28;12.23;;;;;;;16.00;40.13;98501.70;1764391;80;21575;-63
2021/03/13 08:11:21;;;;;;;12.88;11.22;;;;;;;15.99;39.86;98497.88;1772856;80;21163;-63
2021/03/13 08:13:51;;;;;;;12.35;11.25;;;;;;;15.85;39.88;98499.13;1749677;82;21471;-62
2021/03/13 08:16:35;;;;;;;11.55;10.43;;;;;;;15.74;39.85;98498.03;1745401;81;22325;-67
2021/03/13 08:19:03;;;;;;;12.75;11.12;;;;;;;15.68;40.26;98505.63;1714907;81;21147;-64
2021/03/13 08:21:40;;;;;;;12.43;11.12;;;;;;;15.57;39.65;98508.23;1741410;81;21077;-65
2021/03/13 08:24:10;;;;;;;16.45;11.12;;;;;;;15.42;40.13;98500.56;1744701;81;21539;-62
2021/03/13 08:26:53;;;;;;;15.63;11.28;;;;;;;15.34;40.02;98504.89;1736727;82;21013;-61
2021/03/13 08:29:21;;;;;;;15.08;11.60;;;;;;;15.20;39.98;98502.08;1738011;81;21438;-63
2021/03/13 08:31:50;;;;;;;13.48;11.38;;;;;;;15.10;40.29;98510.61;1658999;81;21103;-64
2021/03/13 08:34:25;;;;;;;14.40;11.18;;;;;;;14.99;40.30;98503.84;1761449;80;20887;-65
2021/03/13 08:36:53;;;;;;;16.95;11.75;;;;;;;14.84;40.32;98496.97;1743851;82;21194;-65
2021/03/13 08:39:25;;;;;;;16.62;13.13;;;;;;;14.67;40.84;98496.42;1745724;80;21066;-63
2021/03/13 08:41:54;;;;;;;19.30;13.53;;;;;;;14.68;40.96;98492.17;1777637;80;21378;-63
2021/03/13 08:44:37;;;;;;;14.40;10.48;;;;;;;14.75;40.65;98496.97;1766019;80;21119;-62
2021/03/13 08:47:12;;;;;;;16.73;10.85;;;;;;;14.74;41.02;98487.80;1739077;81;21065;-63
2021/03/13 08:49:47;;;;;;;15.00;10.23;;;;;;;14.95;40.84;98481.20;1768009;81;21112;-66
2021/03/13 08:52:21;;;;;;;12.93;9.78;;;;;;;15.14;40.37;98474.83;1748308;81;21120;-64
2021/03/13 08:54:50;;;;;;;13.03;10.15;;;;;;;15.25;40.24;98476.22;1767271;80;22306;-62
2021/03/13 08:57:29;;;;;;;11.45;10.18;;;;;;;15.32;39.86;98478.84;1750391;81;21098;-64
2021/03/13 09:00:00;;;;;;;16.62;10.45;;;;;;;15.22;39.80;98471.86;1740686;81;21187;-64
2021/03/13 09:02:36;;;;;;;14.10;11.85;;;;;;;15.28;40.04;98469.59;1793554;79;21571;-64
2021/03/13 09:05:12;;;;;;;13.55;9.38;;;;;;;15.46;40.15;98470.95;1712415;80;21124;-63
2021/03/13 09:10:19;;;;;;;9.70;8.73;;;;;;;15.89;38.34;98460.06;1823015;78;22662;-62
2021/03/13 09:12:47;;;;;;;10.88;9.25;;;;;;;15.97;38.30;98463.25;1796434;77;21574;-63
2021/03/13 09:15:17;;;;;;;8.53;7.58;;;;;;;16.22;37.95;98464.41;1783314;79;21248;-63
2021/03/13 09:17:44;;;;;;;12.63;8.55;;;;;;;16.46;37.53;98458.03;1785294;79;21026;-66
2021/03/13 09:20:19;;;;;;;9.48;8.40;;;;;;;16.58;36.64;98476.33;1784896;79;20986;-63
2021/03/13 09:22:47;;;;;;;9.28;7.97;;;;;;;16.38;36.91;98475.81;1759647;79;21016;-61
2021/03/13 09:25:18;;;;;;;11.12;7.40;;;;;;;16.15;36.85;98475.77;1808399;79;20922;-64
2021/03/13 09:27:45;;;;;;;9.95;8.70;;;;;;;15.88;37.75;98469.97;1792917;79;21357;-62
2021/03/13 09:30:20;;;;;;;12.93;8.60;;;;;;;15.68;38.00;98469.44;1794207;79;21011;-61
2021/03/13 09:32:49;;;;;;;12.80;8.55;;;;;;;15.50;38.17;98470.81;1770929;79;21118;-63
2021/03/13 09:35:18;;;;;;;10.32;8.63;;;;;;;15.29;38.65;98467.23;1774485;79;21533;-62
2021/03/13 09:37:45;;;;;;;11.30;8.98;;;;;;;15.19;39.15;98455.70;1788359;79;21115;-65
2021/03/13 09:40:18;;;;;;;14.13;10.23;;;;;;;15.37;39.19;98462.91;1757951;79;21301;-64
2021/03/13 09:42:47;;;;;;;11.40;8.48;;;;;;;15.59;39.34;98460.06;1762576;78;21017;-62
2021/03/13 09:45:24;;;;;;;9.35;8.48;;;;;;;15.86;38.88;98453.30;1792056;79;21031;-64
2021/03/13 09:47:56;;;;;;;9.35;8.43;;;;;;;16.00;38.24;98460.12;1762153;79;21546;-62
2021/03/13 09:50:29;;;;;;;9.88;8.23;;;;;;;15.84;38.30;98449.20;1781926;79;21146;-61
2021/03/13 09:52:58;;;;;;;9.53;8.58;;;;;;;15.56;38.89;98442.29;1800986;79;21359;-63
2021/03/13 09:55:27;;;;;;;9.40;7.58;;;;;;;15.49;39.25;98450.41;1804862;79;21179;-61
2021/03/13 09:58:01;;;;;;;10.50;8.40;;;;;;;15.60;38.98;98445.63;1772934;79;21076;-62
2021/03/13 10:00:32;;;;;;;11.22;8.38;;;;;;;15.67;39.02;98443.66;1783368;79;20953;-65
2021/03/13 10:03:01;;;;;;;9.85;8.63;;;;;;;15.81;38.91;98437.59;1756927;79;21047;-63
2021/03/13 10:05:30;;;;;;;8.70;7.67;;;;;;;15.99;38.59;98435.67;1777683;79;21385;-61
2021/03/13 10:08:07;;;;;;;8.93;8.05;;;;;;;16.00;38.22;98429.78;1770471;79;21202;-61
2021/03/13 10:10:36;;;;;;;10.23;8.88;;;;;;;16.07;37.71;98431.83;1795712;79;20889;-62
2021/03/13 10:13:06;;;;;;;11.55;8.50;;;;;;;15.95;37.55;98422.95;1759422;78;21000;-61
2021/03/13 10:15:38;;;;;;;9.25;8.28;;;;;;;15.73;38.09;98424.51;1794171;79;21122;-61
2021/03/13 10:18:15;;;;;;;11.97;8.25;;;;;;;15.77;38.34;98426.50;1796821;79;21371;-63
2021/03/13 10:20:49;;;;;;;;;;;;;;;15.91;38.71;98413.72;1764203;79;21071;-60
2021/03/13 10:23:30;;;;;;;8.50;7.33;;;;;;;16.08;37.99;98415.49;1796374;79;20133;-62
2021/03/13 10:26:06;;;;;;;6.87;5.90;;;;;;;16.08;35.92;98414.16;1774574;79;21169;-60
2021/03/13 10:28:36;;;;;;;6.80;5.75;;;;;;;15.85;38.01;98406.61;1775721;79;21112;-69
2021/03/13 10:31:13;;;;;;;6.00;5.05;;;;;;;16.08;39.54;98401.80;1747179;79;21268;-69
2021/03/13 10:33:50;;;;;;;6.20;5.65;;;;;;;15.98;35.92;98397.81;1818031;78;22785;-67
2021/03/13 10:36:19;;;;;;;7.85;6.22;;;;;;;15.67;35.97;98400.77;1811639;79;21036;-66
2021/03/13 10:38:50;;;;;;;7.90;6.50;;;;;;;15.43;36.18;98404.40;1816820;79;21174;-69
2021/03/13 10:44:00;;;;;;;7.50;6.70;;;;;;;15.26;36.79;98391.31;1797020;78;23377;-66
2021/03/13 10:46:37;;;;;;;8.13;6.45;;;;;;;15.22;36.83;98392.30;1770643;79;21064;-66
2021/03/13 10:49:05;;;;;;;8.20;6.55;;;;;;;15.03;36.91;98392.02;1788438;79;21360;-68
2021/03/13 10:54:26;;;;;;;6.53;5.40;;;;;;;14.67;37.24;98394.70;1797634;78;22723;-68
2021/03/13 10:56:54;;;;;;;9.85;6.20;;;;;;;14.13;38.01;98390.06;1805499;79;21059;-64
2021/03/13 10:59:33;;;;;;;6.10;5.50;;;;;;;13.82;38.76;98387.44;1770845;79;21188;-61
2021/03/13 11:02:00;;;;;;;7.37;6.40;;;;;;;13.69;39.43;98382.97;1801096;79;21011;-62
2021/03/13 11:04:29;;;;;;;7.40;6.60;;;;;;;13.63;39.77;98381.70;1806454;79;21041;-64
2021/03/13 11:06:59;;;;;;;6.78;6.00;;;;;;;13.51;40.03;98381.05;1785708;79;21078;-65
2021/03/13 11:09:26;;;;;;;7.20;5.67;;;;;;;13.42;40.10;98378.34;1758163;79;20940;-65
2021/03/13 11:11:54;;;;;;;7.22;6.53;;;;;;;13.49;40.06;98378.28;1758032;79;22036;-66
2021/03/13 11:14:22;;;;;;;6.65;5.95;;;;;;;13.55;40.10;98372.91;1765712;79;20989;-62
2021/03/13 11:16:51;;;;;;;7.05;6.08;;;;;;;13.61;40.10;98384.56;1776831;79;20970;-61
2021/03/13 11:19:19;;;;;;;6.67;5.97;;;;;;;13.58;39.94;98367.66;1770332;79;21087;-60
2021/03/13 11:21:46;;;;;;;6.78;6.08;;;;;;;13.43;40.14;98366.60;1786663;79;21051;-61
2021/03/13 11:24:14;;;;;;;7.00;6.30;;;;;;;13.45;40.18;98363.73;1770673;79;21311;-62
2021/03/13 11:26:42;;;;;;;6.33;5.60;;;;;;;13.48;39.95;98362.77;1775624;79;21055;-63
2021/03/13 11:29:11;;;;;;;7.65;6.03;;;;;;;13.48;39.92;98352.59;1793776;79;21079;-61
2021/03/13 11:31:39;;;;;;;6.25;5.65;;;;;;;13.46;40.25;98344.80;1772008;79;21206;-61
2021/03/13 11:34:07;;;;;;;7.03;6.15;;;;;;;13.50;40.56;98350.55;1762153;79;21194;-61
2021/03/13 11:36:35;;;;;;;6.25;5.65;;;;;;;13.44;40.22;98334.86;1787908;79;23039;-61
2021/03/13 11:39:06;;;;;;;6.33;5.72;;;;;;;13.23;40.77;98331.19;1797884;79;21110;-61
2021/03/13 11:41:33;;;;;;;6.33;5.72;;;;;;;13.20;40.84;98326.27;1765588;79;21076;-61
2021/03/13 11:44:01;;;;;;;5.92;5.35;;;;;;;13.23;40.47;98323.17;1763819;79;20992;-62
2021/03/13 11:46:28;;;;;;;7.70;6.40;;;;;;;13.23;40.78;98331.19;1786895;79;21198;-62
2021/03/13 11:48:56;;;;;;;7.62;6.87;;;;;;;13.15;40.37;98334.11;1757974;79;21368;-63
2021/03/13 11:51:23;;;;;;;7.58;6.17;;;;;;;12.84;41.24;98328.69;1788242;79;21142;-62
2021/03/13 11:53:52;;;;;;;7.33;6.22;;;;;;;12.54;41.65;98327.05;1767072;79;21108;-61